Time;durP1;ratioP1;P1;durP2;ratioP2;P2;SDS_P1;SDS_P2;PMS_P1;PMS_P2;Temp;Humidity;BMP_temperature;BMP_pressure;BME280_temperature;BME280_humidity;BME280_pressure;Samples;Min_cycle;Max_cycle;Signal;HPM_P1;HPM_P2
2024/02/08 00:00:36;;;;;;;;;4.50;4.50;;;;;;;;4981738;28;45344;-69
2024/02/08 00:03:07;;;;;;;;;2.00;2.00;;;;;;;;4980931;28;45495;-69
2024/02/08 00:05:32;;;;;;;;;3.75;3.75;;;;;;;;4974137;28;45478;-69
2024/02/08 00:07:58;;;;;;;;;4.00;2.67;;;;;;;;4981333;28;45842;-69
2024/02/08 00:10:23;;;;;;;;;3.00;3.00;;;;;;;;4981471;28;45406;-69
2024/02/08 00:12:49;;;;;;;;;2.75;2.75;;;;;;;;4981544;28;45548;-69
2024/02/08 00:15:15;;;;;;;;;3.00;3.00;;;;;;;;4980459;28;45463;-69
2024/02/08 00:17:40;;;;;;;;;2.50;2.00;;;;;;;;4981345;28;45500;-69
2024/02/08 00:20:06;;;;;;;;;3.00;3.00;;;;;;;;4981457;28;45404;-69
2024/02/08 00:22:31;;;;;;;;;3.00;3.00;;;;;;;;4981523;28;45447;-69
2024/02/08 00:24:56;;;;;;;;;4.00;4.00;;;;;;;;4981102;28;45638;-69
2024/02/08 00:27:22;;;;;;;;;5.00;5.00;;;;;;;;4980371;28;45342;-69
2024/02/08 00:29:47;;;;;;;;;5.50;3.25;;;;;;;;4980339;28;45380;-69
2024/02/08 00:32:12;;;;;;;;;3.00;3.00;;;;;;;;4960279;28;45401;-69
2024/02/08 00:34:38;;;;;;;;;4.75;4.75;;;;;;;;4971731;28;45357;-69
2024/02/08 00:37:05;;;;;;;;;3.75;3.75;;;;;;;;4980861;28;46882;-69
2024/02/08 00:39:30;;;;;;;;;3.00;3.00;;;;;;;;4980132;28;45372;-69
2024/02/08 00:41:57;;;;;;;;;3.00;3.00;;;;;;;;4980370;28;45485;-69
2024/02/08 00:44:26;;;;;;;;;3.00;3.00;;;;;;;;4961602;28;46674;-69
2024/02/08 00:46:51;;;;;;;;;2.50;2.50;;;;;;;;4963288;28;47155;-69
2024/02/08 00:49:16;;;;;;;;;2.00;2.00;;;;;;;;4981037;28;45482;-69
2024/02/08 00:51:42;;;;;;;;;2.33;2.33;;;;;;;;4981175;28;45436;-69
2024/02/08 00:54:08;;;;;;;;;3.67;3.67;;;;;;;;4963346;28;45335;-69
2024/02/08 00:56:34;;;;;;;;;4.00;4.00;;;;;;;;4980513;28;47160;-69
2024/02/08 00:58:59;;;;;;;;;3.50;3.00;;;;;;;;4980596;28;45555;-69
2024/02/08 01:01:24;;;;;;;;;3.00;3.00;;;;;;;;4959014;28;45520;-69
2024/02/08 01:03:49;;;;;;;;;1.67;1.67;;;;;;;;4978577;28;45309;-69
2024/02/08 01:06:15;;;;;;;;;2.67;2.67;;;;;;;;4980473;28;45572;-69
2024/02/08 01:08:40;;;;;;;;;5.00;3.00;;;;;;;;4980477;28;45254;-69
2024/02/08 01:11:05;;;;;;;;;3.00;3.00;;;;;;;;4980752;28;45460;-69
2024/02/08 01:13:33;;;;;;;;;2.00;2.00;;;;;;;;4962818;28;45708;-69
2024/02/08 01:15:58;;;;;;;;;5.50;3.00;;;;;;;;4962867;28;48282;-69
2024/02/08 01:18:24;;;;;;;;;3.00;3.00;;;;;;;;4980698;28;45247;-69
2024/02/08 01:20:50;;;;;;;;;2.00;2.00;;;;;;;;4980519;28;45439;-69
2024/02/08 01:23:17;;;;;;;;;2.75;2.75;;;;;;;;4978504;28;45356;-69
2024/02/08 01:25:42;;;;;;;;;3.00;3.00;;;;;;;;4980240;28;45459;-69
2024/02/08 01:28:08;;;;;;;;;3.00;3.00;;;;;;;;4972015;28;45389;-70
2024/02/08 01:30:35;;;;;;;;;1.00;1.00;;;;;;;;4979994;28;45511;-69
2024/02/08 01:33:00;;;;;;;;;2.00;2.00;;;;;;;;4952899;28;45791;-69
2024/02/08 01:35:25;;;;;;;;;2.50;2.50;;;;;;;;4977122;28;45325;-69
2024/02/08 01:37:51;;;;;;;;;1.50;1.25;;;;;;;;4980167;28;45369;-69
2024/02/08 01:40:16;;;;;;;;;3.00;2.00;;;;;;;;4979357;28;45526;-69
2024/02/08 01:42:42;;;;;;;;;4.50;3.00;;;;;;;;4979881;28;45323;-69
2024/02/08 01:45:29;;;;;;;;;1.00;1.00;;;;;;;;4978636;28;46375;-69
2024/02/08 01:47:55;;;;;;;;;2.50;2.00;;;;;;;;4976427;28;45856;-69
2024/02/08 01:50:20;;;;;;;;;1.00;1.00;;;;;;;;4980187;28;45491;-69
2024/02/08 01:52:50;;;;;;;;;1.75;1.75;;;;;;;;4980190;28;45449;-69
2024/02/08 01:55:16;;;;;;;;;1.00;1.00;;;;;;;;4949624;28;48481;-69
2024/02/08 01:57:41;;;;;;;;;4.00;2.00;;;;;;;;4979536;28;45334;-69
2024/02/08 02:00:07;;;;;;;;;2.25;2.00;;;;;;;;4980190;28;45281;-69
2024/02/08 02:02:36;;;;;;;;;1.00;1.00;;;;;;;;4980000;28;45284;-69
2024/02/08 02:05:01;;;;;;;;;1.75;1.00;;;;;;;;4969745;28;46226;-69
2024/02/08 02:07:28;;;;;;;;;2.00;2.00;;;;;;;;4979725;28;45452;-69
2024/02/08 02:09:53;;;;;;;;;3.00;1.00;;;;;;;;4977806;28;46762;-69
2024/02/08 02:12:22;;;;;;;;;1.00;1.00;;;;;;;;4961698;28;45527;-69
2024/02/08 02:14:48;;;;;;;;;2.00;1.00;;;;;;;;4979486;28;46253;-69
2024/02/08 02:17:19;;;;;;;;;2.00;2.00;;;;;;;;4979513;28;45289;-69
2024/02/08 02:19:46;;;;;;;;;1.00;1.00;;;;;;;;4962233;28;45303;-69
2024/02/08 02:22:12;;;;;;;;;1.00;1.00;;;;;;;;4979550;28;45459;-69
2024/02/08 02:24:40;;;;;;;;;1.75;1.75;;;;;;;;4979725;28;46245;-70
2024/02/08 02:27:05;;;;;;;;;1.00;1.00;;;;;;;;4979459;28;45452;-69
2024/02/08 02:29:34;;;;;;;;;4.00;1.00;;;;;;;;4958631;28;45978;-69
2024/02/08 02:32:00;;;;;;;;;0.25;0.25;;;;;;;;4972485;28;45751;-69
2024/02/08 02:34:26;;;;;;;;;1.50;1.50;;;;;;;;4967345;28;45608;-69
2024/02/08 02:36:53;;;;;;;;;3.00;2.00;;;;;;;;4968888;28;45342;-69
2024/02/08 02:39:25;;;;;;;;;3.00;3.00;;;;;;;;4970878;28;45318;-69
2024/02/08 02:41:50;;;;;;;;;2.25;2.00;;;;;;;;4978330;28;45277;-69
2024/02/08 02:44:16;;;;;;;;;2.00;2.00;;;;;;;;4977682;28;45323;-69
2024/02/08 02:46:41;;;;;;;;;2.00;2.00;;;;;;;;4977318;28;45581;-69
2024/02/08 02:49:09;;;;;;;;;2.00;2.00;;;;;;;;4977643;28;45370;-69
2024/02/08 02:51:36;;;;;;;;;1.25;1.25;;;;;;;;4976956;28;45576;-69
2024/02/08 02:54:01;;;;;;;;;1.00;1.00;;;;;;;;4979970;28;46211;-69
2024/02/08 02:56:27;;;;;;;;;3.00;3.00;;;;;;;;4980655;28;45472;-69
2024/02/08 02:58:53;;;;;;;;;0.00;0.00;;;;;;;;4981048;28;45480;-69
2024/02/08 03:01:19;;;;;;;;;1.67;1.67;;;;;;;;4981411;28;45546;-70
2024/02/08 03:03:47;;;;;;;;;0.75;0.00;;;;;;;;4976071;28;45388;-69
2024/02/08 03:06:15;;;;;;;;;0.50;0.50;;;;;;;;4980294;28;45430;-69
2024/02/08 03:08:42;;;;;;;;;1.00;1.00;;;;;;;;4982632;28;45333;-69
2024/02/08 03:11:10;;;;;;;;;1.00;1.00;;;;;;;;4981667;28;45393;-69
2024/02/08 03:13:38;;;;;;;;;0.75;0.75;;;;;;;;4982301;28;45991;-69
2024/02/08 03:16:05;;;;;;;;;0.00;0.00;;;;;;;;4982484;28;45458;-69
2024/02/08 03:18:31;;;;;;;;;0.75;0.75;;;;;;;;4982743;28;45341;-69
2024/02/08 03:20:56;;;;;;;;;1.00;1.00;;;;;;;;4980139;28;45357;-69
2024/02/08 03:23:24;;;;;;;;;0.00;0.00;;;;;;;;4982382;28;46040;-69
2024/02/08 03:25:49;;;;;;;;;0.00;0.00;;;;;;;;4982168;28;45348;-70
2024/02/08 03:28:15;;;;;;;;;1.25;0.50;;;;;;;;4973120;28;45537;-69
2024/02/08 03:30:40;;;;;;;;;0.25;0.25;;;;;;;;4981724;28;45448;-69
2024/02/08 03:33:15;;;;;;;;;0.00;0.00;;;;;;;;4971491;28;46490;-69
2024/02/08 03:35:41;;;;;;;;;1.00;1.00;;;;;;;;4980744;28;45389;-69
2024/02/08 03:38:08;;;;;;;;;0.00;0.00;;;;;;;;4982248;28;45355;-70
2024/02/08 03:40:34;;;;;;;;;0.00;0.00;;;;;;;;4981507;28;45424;-69
2024/02/08 03:43:00;;;;;;;;;0.00;0.00;;;;;;;;4981597;28;45313;-69
2024/02/08 03:45:28;;;;;;;;;0.00;0.00;;;;;;;;4982122;28;45423;-69
2024/02/08 03:47:59;;;;;;;;;1.00;1.00;;;;;;;;4982107;28;45518;-69
2024/02/08 03:50:25;;;;;;;;;0.00;0.00;;;;;;;;4981091;28;45539;-69
2024/02/08 03:52:51;;;;;;;;;0.00;0.00;;;;;;;;4981886;28;45462;-69
2024/02/08 03:55:17;;;;;;;;;0.00;0.00;;;;;;;;4982060;28;45386;-69
2024/02/08 03:57:45;;;;;;;;;0.00;0.00;;;;;;;;4981477;28;45377;-69
2024/02/08 04:00:13;;;;;;;;;1.00;0.00;;;;;;;;4981925;28;45597;-70
2024/02/08 04:02:43;;;;;;;;;1.50;1.00;;;;;;;;4981704;28;47119;-69
2024/02/08 04:05:19;;;;;;;;;0.75;0.75;;;;;;;;4980909;28;45365;-69
2024/02/08 04:07:59;;;;;;;;;0.50;0.00;;;;;;;;4981774;28;45410;-69
2024/02/08 04:53:58;;;;;;;;;0.00;0.00;;;;;;;;4970556;28;45470;-69
2024/02/08 04:56:24;;;;;;;;;0.00;0.00;;;;;;;;4980743;28;46428;-69
2024/02/08 04:58:50;;;;;;;;;0.50;0.00;;;;;;;;4980740;28;45503;-69
2024/02/08 05:01:17;;;;;;;;;0.00;0.00;;;;;;;;4981029;28;45550;-69
2024/02/08 05:03:42;;;;;;;;;0.00;0.00;;;;;;;;4962505;28;45321;-69
2024/02/08 05:06:11;;;;;;;;;0.00;0.00;;;;;;;;4980852;28;46337;-69
2024/02/08 05:08:41;;;;;;;;;0.00;0.00;;;;;;;;4980409;28;45440;-69
2024/02/08 05:11:09;;;;;;;;;0.00;0.00;;;;;;;;4980598;28;45335;-70
2024/02/08 05:13:34;;;;;;;;;1.50;0.00;;;;;;;;4963072;28;45430;-69
2024/02/08 05:16:00;;;;;;;;;1.00;0.00;;;;;;;;4980254;28;45323;-69
2024/02/08 05:18:28;;;;;;;;;1.00;0.00;;;;;;;;4979760;28;45607;-69
2024/02/08 05:20:57;;;;;;;;;0.00;0.00;;;;;;;;4980323;28;45739;-69
2024/02/08 05:23:25;;;;;;;;;0.00;0.00;;;;;;;;4974366;28;45332;-69
2024/02/08 05:25:52;;;;;;;;;0.00;0.00;;;;;;;;4980222;28;47108;-69
2024/02/08 05:28:18;;;;;;;;;0.00;0.00;;;;;;;;4980370;28;45462;-69
2024/02/08 05:30:43;;;;;;;;;0.00;0.00;;;;;;;;4980303;28;45562;-69
2024/02/08 05:33:09;;;;;;;;;0.00;0.00;;;;;;;;4969306;28;45493;-69
2024/02/08 05:35:34;;;;;;;;;0.00;0.00;;;;;;;;4977622;28;45607;-69
2024/02/08 05:38:00;;;;;;;;;1.00;1.00;;;;;;;;4980247;28;45433;-69
2024/02/08 05:40:30;;;;;;;;;0.00;0.00;;;;;;;;4979887;28;45541;-70
2024/02/08 05:42:56;;;;;;;;;0.00;0.00;;;;;;;;4980216;28;45422;-70
2024/02/08 05:45:23;;;;;;;;;0.00;0.00;;;;;;;;4968853;28;45602;-69
2024/02/08 05:47:48;;;;;;;;;0.00;0.00;;;;;;;;4969944;28;45630;-70
2024/02/08 05:50:21;;;;;;;;;0.00;0.00;;;;;;;;4977396;28;45699;-70
2024/02/08 05:52:47;;;;;;;;;0.00;0.00;;;;;;;;4979228;28;45493;-70
2024/02/08 05:55:12;;;;;;;;;1.00;0.00;;;;;;;;4977851;28;46501;-70
2024/02/08 05:57:44;;;;;;;;;1.00;0.00;;;;;;;;4978296;28;45362;-70
2024/02/08 06:00:14;;;;;;;;;0.00;0.00;;;;;;;;4942924;28;45404;-70
2024/02/08 06:02:40;;;;;;;;;2.00;0.00;;;;;;;;4955845;28;46638;-69
2024/02/08 06:05:09;;;;;;;;;0.00;0.00;;;;;;;;4979089;28;45559;-69
2024/02/08 06:07:36;;;;;;;;;0.00;0.00;;;;;;;;4961876;28;45330;-69
2024/02/08 06:10:14;;;;;;;;;0.00;0.00;;;;;;;;4979381;28;45613;-69
2024/02/08 06:12:42;;;;;;;;;0.00;0.00;;;;;;;;4961519;28;45804;-70
2024/02/08 06:15:32;;;;;;;;;0.75;0.75;;;;;;;;4979454;28;45311;-70
2024/02/08 06:17:58;;;;;;;;;3.00;0.00;;;;;;;;4967182;28;45570;-69
2024/02/08 06:20:43;;;;;;;;;0.00;0.00;;;;;;;;4979704;28;45439;-69
2024/02/08 06:23:23;;;;;;;;;1.00;1.00;;;;;;;;4962179;28;45786;-70
2024/02/08 06:28:33;;;;;;;;;0.75;0.75;;;;;;;;4969605;28;45315;-69
2024/02/08 06:31:05;;;;;;;;;2.00;1.00;;;;;;;;4979632;28;45365;-70
2024/02/08 06:33:42;;;;;;;;;2.75;1.00;;;;;;;;4975465;28;45324;-69
2024/02/08 06:36:07;;;;;;;;;2.00;1.75;;;;;;;;4965380;28;46993;-70
2024/02/08 06:38:51;;;;;;;;;5.00;2.50;;;;;;;;4961666;28;45447;-66
2024/02/08 06:41:24;;;;;;;;;5.75;2.00;;;;;;;;4979401;28;45427;-65
2024/02/08 06:44:41;;;;;;;;;4.50;2.75;;;;;;;;4970523;28;45630;-65
2024/02/08 06:46:47;;;;;;;;;2.75;2.75;;;;;;;;4968394;28;45336;-65
2024/02/08 07:41:40;;;;;;;;;11.50;8.00;;;;;;;;4896823;28;47008;-70
2024/02/08 07:44:09;;;;;;;;;10.50;6.75;;;;;;;;4898460;29;46368;-71
2024/02/08 07:46:34;;;;;;;;;9.75;6.50;;;;;;;;4926440;28;45526;-70
2024/02/08 07:49:04;;;;;;;;;12.67;7.00;;;;;;;;4961698;28;45471;-70
2024/02/08 07:51:33;;;;;;;;;12.50;9.75;;;;;;;;4969583;28;45479;-70
2024/02/08 07:53:58;;;;;;;;;9.50;7.50;;;;;;;;4960599;28;48275;-70
2024/02/08 07:58:51;;;;;;;;;9.00;7.75;;;;;;;;4975706;28;45626;-70
2024/02/08 08:01:17;;;;;;;;;6.75;6.00;;;;;;;;4959835;28;45433;-70
2024/02/08 08:03:44;;;;;;;;;9.75;6.75;;;;;;;;4974157;28;47064;-70
2024/02/08 08:06:09;;;;;;;;;9.25;6.25;;;;;;;;4964712;28;45698;-70
2024/02/08 08:08:36;;;;;;;;;10.25;8.75;;;;;;;;4964749;28;45471;-71
2024/02/08 08:11:15;;;;;;;;;10.25;8.75;;;;;;;;4972779;28;45454;-70
2024/02/08 08:18:58;;;;;;;;;11.75;8.50;;;;;;;;4974830;28;45440;-70
2024/02/08 08:21:27;;;;;;;;;11.50;8.75;;;;;;;;4973845;28;45347;-70
2024/02/08 08:23:59;;;;;;;;;11.25;6.50;;;;;;;;4964727;28;45342;-70
2024/02/08 08:26:37;;;;;;;;;10.25;8.00;;;;;;;;4962524;28;45493;-71
2024/02/08 08:29:04;;;;;;;;;11.00;7.50;;;;;;;;4951913;28;45503;-70
2024/02/08 08:31:36;;;;;;;;;9.00;8.50;;;;;;;;4964164;28;45589;-70
2024/02/08 08:35:37;;;;;;;;;9.25;7.75;;;;;;;;4969342;28;46082;-71
2024/02/08 08:36:57;;;;;;;;;12.75;7.00;;;;;;;;4969435;28;46273;-70
2024/02/08 08:42:06;;;;;;;;;9.25;7.25;;;;;;;;4967675;28;45515;-70
2024/02/08 08:44:34;;;;;;;;;12.00;8.00;;;;;;;;4972880;28;45456;-70
2024/02/08 08:47:00;;;;;;;;;11.00;7.75;;;;;;;;4977551;28;45409;-70
2024/02/08 08:49:29;;;;;;;;;13.75;9.25;;;;;;;;4971100;28;45656;-70
2024/02/08 08:51:58;;;;;;;;;12.00;7.25;;;;;;;;4979973;28;45320;-70
2024/02/08 08:54:29;;;;;;;;;10.00;7.50;;;;;;;;4962720;28;48147;-70
2024/02/08 08:56:56;;;;;;;;;9.25;8.25;;;;;;;;4979669;28;45688;-71
2024/02/08 08:59:22;;;;;;;;;12.50;7.75;;;;;;;;4976862;28;45705;-70
2024/02/08 09:01:48;;;;;;;;;13.75;9.75;;;;;;;;4962142;28;45628;-70
2024/02/08 09:04:25;;;;;;;;;15.00;10.75;;;;;;;;4944303;28;48627;-71
2024/02/08 09:06:51;;;;;;;;;12.50;9.00;;;;;;;;4966480;28;45685;-70
2024/02/08 09:09:54;;;;;;;;;10.00;9.00;;;;;;;;4965531;28;45563;-71
2024/02/08 09:12:14;;;;;;;;;18.50;9.25;;;;;;;;4966661;28;45998;-70
2024/02/08 09:14:53;;;;;;;;;10.50;7.75;;;;;;;;4974643;28;45457;-70
2024/02/08 09:17:25;;;;;;;;;11.75;8.00;;;;;;;;4975973;28;45530;-70
2024/02/08 09:19:50;;;;;;;;;11.00;9.75;;;;;;;;4974128;28;45346;-70
2024/02/08 09:22:17;;;;;;;;;12.50;8.50;;;;;;;;4973575;28;45371;-71
2024/02/08 09:24:44;;;;;;;;;12.00;9.00;;;;;;;;4947264;28;47201;-71
2024/02/08 09:27:15;;;;;;;;;13.00;8.75;;;;;;;;4957489;28;45746;-70
2024/02/08 09:29:50;;;;;;;;;13.25;7.50;;;;;;;;4961266;28;45546;-70
2024/02/08 09:35:16;;;;;;;;;16.25;8.00;;;;;;;;4970634;28;45812;-71
2024/02/08 09:37:45;;;;;;;;;10.00;9.00;;;;;;;;4976843;28;45739;-71
2024/02/08 09:40:18;;;;;;;;;11.00;9.75;;;;;;;;4972957;28;45387;-71
2024/02/08 09:42:54;;;;;;;;;9.50;8.00;;;;;;;;4973363;28;45374;-71
2024/02/08 09:48:05;;;;;;;;;11.50;9.25;;;;;;;;4962279;28;45453;-70
2024/02/08 09:50:35;;;;;;;;;11.50;8.50;;;;;;;;4978363;28;45923;-71
2024/02/08 09:53:07;;;;;;;;;10.75;7.00;;;;;;;;4974873;28;45695;-70
2024/02/08 09:55:32;;;;;;;;;9.25;6.00;;;;;;;;4957237;28;46843;-70
2024/02/08 09:58:04;;;;;;;;;8.25;6.00;;;;;;;;4966469;28;45464;-70
2024/02/08 10:00:44;;;;;;;;;11.00;6.00;;;;;;;;4953089;28;45460;-70
2024/02/08 10:03:10;;;;;;;;;9.00;5.25;;;;;;;;4955259;28;46147;-70
2024/02/08 10:05:52;;;;;;;;;9.00;6.75;;;;;;;;4952110;28;48127;-70
2024/02/08 10:08:31;;;;;;;;;7.00;5.75;;;;;;;;4952843;28;45819;-70
2024/02/08 10:14:01;;;;;;;;;10.25;7.50;;;;;;;;4966310;28;45515;-70
2024/02/08 10:16:42;;;;;;;;;6.75;6.00;;;;;;;;4974375;28;46476;-70
2024/02/08 10:19:27;;;;;;;;;10.50;6.50;;;;;;;;4971273;28;45500;-69
2024/02/08 10:21:57;;;;;;;;;8.25;7.75;;;;;;;;4948077;28;45753;-70
2024/02/08 10:24:27;;;;;;;;;9.50;7.00;;;;;;;;4959872;28;45602;-70
2024/02/08 10:26:58;;;;;;;;;11.00;9.75;;;;;;;;4977150;28;45412;-70
2024/02/08 10:29:25;;;;;;;;;11.00;9.00;;;;;;;;4970474;28;45647;-70
2024/02/08 10:31:53;;;;;;;;;10.75;9.00;;;;;;;;4957065;28;45312;-70
2024/02/08 10:34:33;;;;;;;;;15.75;9.00;;;;;;;;4970425;28;45452;-65
2024/02/08 10:36:59;;;;;;;;;13.50;7.75;;;;;;;;4968963;28;45558;-65
2024/02/08 10:39:24;;;;;;;;;15.75;10.00;;;;;;;;4972789;28;45278;-65
2024/02/08 10:44:24;;;;;;;;;10.25;7.25;;;;;;;;4968540;28;45435;-70
2024/02/08 10:46:49;;;;;;;;;10.00;9.00;;;;;;;;4944105;28;47325;-70
2024/02/08 10:49:16;;;;;;;;;14.50;11.00;;;;;;;;4968140;28;45397;-70
2024/02/08 10:51:44;;;;;;;;;8.00;7.50;;;;;;;;4965300;28;45348;-70
2024/02/08 10:54:22;;;;;;;;;11.00;8.00;;;;;;;;4969796;28;45471;-70
2024/02/08 10:57:06;;;;;;;;;10.75;8.00;;;;;;;;4968401;28;46512;-69
2024/02/08 10:59:48;;;;;;;;;9.75;7.00;;;;;;;;4949329;28;45466;-70
2024/02/08 11:02:35;;;;;;;;;8.75;8.75;;;;;;;;4955605;28;45592;-70
2024/02/08 11:05:17;;;;;;;;;14.00;10.25;;;;;;;;4958127;28;45949;-70
2024/02/08 11:07:45;;;;;;;;;9.50;8.50;;;;;;;;4964066;28;46558;-71
2024/02/08 11:10:11;;;;;;;;;13.75;8.25;;;;;;;;4966114;28;45421;-70
2024/02/08 11:12:39;;;;;;;;;14.75;10.00;;;;;;;;4977111;28;45325;-70
2024/02/08 11:15:15;;;;;;;;;11.50;9.25;;;;;;;;4980053;28;45499;-70
2024/02/08 11:17:49;;;;;;;;;10.00;8.00;;;;;;;;4962399;28;45432;-70
2024/02/08 11:20:22;;;;;;;;;9.75;7.50;;;;;;;;4957140;28;45742;-70
2024/02/08 11:22:57;;;;;;;;;8.50;6.75;;;;;;;;4973672;28;45526;-70
2024/02/08 11:25:33;;;;;;;;;12.50;9.75;;;;;;;;4975093;28;45478;-69
2024/02/08 11:28:08;;;;;;;;;9.75;7.75;;;;;;;;4957560;28;48046;-70
2024/02/08 11:30:34;;;;;;;;;10.00;9.25;;;;;;;;4970213;28;45433;-69
2024/02/08 11:33:03;;;;;;;;;13.50;10.00;;;;;;;;4970807;28;45672;-70
2024/02/08 11:35:30;;;;;;;;;10.25;10.25;;;;;;;;4954340;28;45827;-70
2024/02/08 11:37:56;;;;;;;;;8.50;8.25;;;;;;;;4974297;28;46183;-69
2024/02/08 11:40:36;;;;;;;;;11.50;9.75;;;;;;;;4975155;28;45566;-70
2024/02/08 11:43:05;;;;;;;;;8.00;8.00;;;;;;;;4977766;28;45498;-70
2024/02/08 11:45:31;;;;;;;;;11.75;9.75;;;;;;;;4972924;28;45688;-70
2024/02/08 11:47:58;;;;;;;;;10.50;7.75;;;;;;;;4972431;28;46953;-70
2024/02/08 11:50:32;;;;;;;;;10.75;8.00;;;;;;;;4964806;28;45647;-70
2024/02/08 11:52:59;;;;;;;;;14.00;9.75;;;;;;;;4955208;28;45734;-70
2024/02/08 11:55:24;;;;;;;;;11.00;10.00;;;;;;;;4980058;28;45757;-70
2024/02/08 11:57:53;;;;;;;;;9.00;9.00;;;;;;;;4978427;28;45624;-70
2024/02/08 12:00:18;;;;;;;;;7.50;7.00;;;;;;;;4968087;28;45650;-70
2024/02/08 12:02:47;;;;;;;;;12.00;8.75;;;;;;;;4955228;28;45577;-70
2024/02/08 12:05:17;;;;;;;;;9.00;8.75;;;;;;;;4979364;28;45428;-69
2024/02/08 12:07:46;;;;;;;;;10.00;6.00;;;;;;;;4953183;28;48076;-70
2024/02/08 12:10:15;;;;;;;;;13.00;9.25;;;;;;;;4975673;28;45262;-70
2024/02/08 12:12:44;;;;;;;;;12.25;8.50;;;;;;;;4979870;28;45428;-70
2024/02/08 12:15:10;;;;;;;;;9.75;8.75;;;;;;;;4947721;28;45569;-70
2024/02/08 12:17:35;;;;;;;;;14.00;11.50;;;;;;;;4973137;28;45433;-70
2024/02/08 12:20:00;;;;;;;;;8.67;7.33;;;;;;;;4979811;28;45396;-70
2024/02/08 12:22:26;;;;;;;;;9.50;8.75;;;;;;;;4978525;28;45482;-69
2024/02/08 12:24:58;;;;;;;;;11.25;9.00;;;;;;;;4973731;28;45645;-71
2024/02/08 12:27:25;;;;;;;;;10.00;8.00;;;;;;;;4975318;28;46078;-70
2024/02/08 12:29:51;;;;;;;;;9.75;8.00;;;;;;;;4978729;28;45653;-70
2024/02/08 12:32:16;;;;;;;;;10.50;9.25;;;;;;;;4967343;28;45568;-70
2024/02/08 12:34:42;;;;;;;;;15.00;10.50;;;;;;;;4971085;28;45338;-70
2024/02/08 12:37:08;;;;;;;;;11.25;9.50;;;;;;;;4975673;28;45498;-70
2024/02/08 12:39:38;;;;;;;;;10.00;9.75;;;;;;;;4968783;28;45336;-70
2024/02/08 12:42:05;;;;;;;;;10.50;9.50;;;;;;;;4973055;28;45313;-64
2024/02/08 12:44:30;;;;;;;;;9.00;9.00;;;;;;;;4958549;28;45749;-65
2024/02/08 12:46:56;;;;;;;;;11.50;9.75;;;;;;;;4980756;28;46204;-65
2024/02/08 12:49:22;;;;;;;;;9.00;7.75;;;;;;;;4980687;28;45284;-65
2024/02/08 12:51:49;;;;;;;;;8.50;7.75;;;;;;;;4948292;28;45264;-65
2024/02/08 12:54:14;;;;;;;;;7.00;7.00;;;;;;;;4967547;28;45343;-65
2024/02/08 12:56:39;;;;;;;;;6.75;6.00;;;;;;;;4968760;28;45508;-65
2024/02/08 12:59:05;;;;;;;;;8.00;6.00;;;;;;;;4975655;28;45387;-66
2024/02/08 13:01:38;;;;;;;;;12.00;8.67;;;;;;;;4978859;28;45499;-65
2024/02/08 13:04:04;;;;;;;;;9.50;9.25;;;;;;;;4980166;28;45554;-65
2024/02/08 13:06:29;;;;;;;;;12.50;8.25;;;;;;;;4978113;28;45297;-65
2024/02/08 13:09:25;;;;;;;;;10.00;7.33;;;;;;;;4946053;28;45695;-65
2024/02/08 13:11:49;;;;;;;;;10.50;8.75;;;;;;;;4979623;28;45596;-65
2024/02/08 13:14:18;;;;;;;;;11.00;8.33;;;;;;;;4960748;28;45428;-65
2024/02/08 13:16:43;;;;;;;;;10.50;7.75;;;;;;;;4973193;28;46951;-65
2024/02/08 13:19:13;;;;;;;;;10.25;9.25;;;;;;;;4961201;28;46293;-65
2024/02/08 13:21:39;;;;;;;;;12.75;9.00;;;;;;;;4979286;28;45368;-65
2024/02/08 13:24:07;;;;;;;;;11.75;10.75;;;;;;;;4979978;28;45337;-65
2024/02/08 13:26:36;;;;;;;;;13.75;9.25;;;;;;;;4963061;28;45712;-70
2024/02/08 13:29:02;;;;;;;;;11.50;10.25;;;;;;;;4964855;28;45350;-70
2024/02/08 13:31:28;;;;;;;;;9.25;8.50;;;;;;;;4976127;28;45673;-70
2024/02/08 13:33:54;;;;;;;;;7.75;7.75;;;;;;;;4966330;28;45491;-70
2024/02/08 13:36:19;;;;;;;;;11.33;9.00;;;;;;;;4954537;28;48548;-70
2024/02/08 13:38:48;;;;;;;;;9.25;9.00;;;;;;;;4973440;28;45550;-70
2024/02/08 13:41:13;;;;;;;;;10.25;8.75;;;;;;;;4976719;28;46730;-70
2024/02/08 13:43:46;;;;;;;;;10.67;8.33;;;;;;;;4977342;28;45492;-69
2024/02/08 13:46:13;;;;;;;;;9.25;8.25;;;;;;;;4975016;28;46228;-70
2024/02/08 13:48:38;;;;;;;;;12.50;9.75;;;;;;;;4961146;28;45413;-70
2024/02/08 13:51:07;;;;;;;;;9.25;7.00;;;;;;;;4978838;28;45389;-69
2024/02/08 13:53:35;;;;;;;;;12.00;10.00;;;;;;;;4957941;28;45340;-69
2024/02/08 13:56:05;;;;;;;;;18.75;9.75;;;;;;;;4947919;28;47059;-69
2024/02/08 13:58:30;;;;;;;;;10.50;9.50;;;;;;;;4968846;28;45682;-69
2024/02/08 14:00:57;;;;;;;;;17.00;12.33;;;;;;;;4974210;28;45792;-70
2024/02/08 14:03:23;;;;;;;;;11.25;10.50;;;;;;;;4974432;28;45668;-70
2024/02/08 14:05:51;;;;;;;;;16.00;9.00;;;;;;;;4973804;28;46296;-70
2024/02/08 14:08:23;;;;;;;;;19.25;16.00;;;;;;;;4973600;28;45899;-70
2024/02/08 14:10:48;;;;;;;;;11.50;10.25;;;;;;;;4976181;28;45475;-69
2024/02/08 14:13:14;;;;;;;;;10.67;8.33;;;;;;;;4976636;28;45610;-69
2024/02/08 14:15:48;;;;;;;;;10.75;9.00;;;;;;;;4974801;28;45460;-69
2024/02/08 14:18:30;;;;;;;;;14.00;10.75;;;;;;;;4974184;28;45618;-69
2024/02/08 14:20:56;;;;;;;;;11.00;10.50;;;;;;;;4976730;28;45521;-69
2024/02/08 14:23:31;;;;;;;;;15.25;10.75;;;;;;;;4973391;28;45325;-68
2024/02/08 14:28:31;;;;;;;;;12.75;12.00;;;;;;;;4968863;28;46116;-69
2024/02/08 14:31:00;;;;;;;;;14.25;12.75;;;;;;;;4970411;28;45668;-69
2024/02/08 14:33:25;;;;;;;;;14.75;11.25;;;;;;;;4976734;28;45481;-69
2024/02/08 14:35:51;;;;;;;;;10.67;9.33;;;;;;;;4969183;28;46178;-69
2024/02/08 14:38:16;;;;;;;;;9.50;9.00;;;;;;;;4974626;28;45425;-69
2024/02/08 14:40:41;;;;;;;;;12.33;11.00;;;;;;;;4970967;28;45958;-69
2024/02/08 14:43:06;;;;;;;;;12.67;9.00;;;;;;;;4955418;28;45682;-69
2024/02/08 14:45:38;;;;;;;;;8.67;8.67;;;;;;;;4969219;28;45670;-69
2024/02/08 14:48:04;;;;;;;;;10.75;7.50;;;;;;;;4976180;28;45380;-69
2024/02/08 14:53:13;;;;;;;;;10.50;10.25;;;;;;;;4976602;28;45249;-69
2024/02/08 14:55:45;;;;;;;;;11.67;9.33;;;;;;;;4981473;28;45436;-70
2024/02/08 14:58:31;;;;;;;;;14.75;9.50;;;;;;;;4964799;28;45800;-69
2024/02/08 15:00:57;;;;;;;;;12.00;10.25;;;;;;;;4966904;28;45474;-69
2024/02/08 15:03:27;;;;;;;;;9.75;9.00;;;;;;;;4969430;28;45824;-70
2024/02/08 15:06:05;;;;;;;;;17.25;10.75;;;;;;;;4965087;28;47013;-70
2024/02/08 15:08:38;;;;;;;;;8.50;6.25;;;;;;;;4979851;28;47040;-69
2024/02/08 15:11:09;;;;;;;;;13.00;10.00;;;;;;;;4977128;28;45478;-69
2024/02/08 15:13:46;;;;;;;;;15.00;13.25;;;;;;;;4983748;28;45435;-69
2024/02/08 15:16:21;;;;;;;;;14.75;11.00;;;;;;;;4961573;28;47297;-70
2024/02/08 15:18:47;;;;;;;;;9.50;8.75;;;;;;;;4974505;28;45642;-69
2024/02/08 15:21:23;;;;;;;;;12.50;11.00;;;;;;;;4982297;28;45455;-70
2024/02/08 15:24:18;;;;;;;;;14.00;10.50;;;;;;;;4983131;28;45568;-70
2024/02/08 15:26:37;;;;;;;;;13.00;12.75;;;;;;;;4982943;28;46452;-70
2024/02/08 15:29:04;;;;;;;;;10.00;9.75;;;;;;;;4982065;28;45431;-69
2024/02/08 15:36:50;;;;;;;;;11.75;10.00;;;;;;;;4966343;28;46041;-70
2024/02/08 15:39:27;;;;;;;;;12.50;8.50;;;;;;;;4975965;28;45772;-70
2024/02/08 15:41:55;;;;;;;;;14.25;12.00;;;;;;;;4983159;28;44971;-70
2024/02/08 15:44:33;;;;;;;;;11.50;10.25;;;;;;;;4952970;28;45761;-70
2024/02/08 15:46:59;;;;;;;;;9.75;9.25;;;;;;;;4978208;28;46857;-69
2024/02/08 15:49:28;;;;;;;;;16.00;13.00;;;;;;;;4958815;28;45451;-69
2024/02/08 15:51:55;;;;;;;;;16.75;12.25;;;;;;;;4957378;28;45602;-69
2024/02/08 15:54:23;;;;;;;;;14.00;11.00;;;;;;;;4958665;28;45783;-70
2024/02/08 15:56:53;;;;;;;;;16.50;11.75;;;;;;;;4982213;28;45459;-70
2024/02/08 15:59:22;;;;;;;;;11.75;10.25;;;;;;;;4962735;28;45663;-70
2024/02/08 16:01:51;;;;;;;;;11.75;10.75;;;;;;;;4958764;28;45567;-70
2024/02/08 16:07:11;;;;;;;;;13.75;12.50;;;;;;;;4977411;28;45529;-69
2024/02/08 16:09:37;;;;;;;;;15.00;13.75;;;;;;;;4973323;28;45754;-69
2024/02/08 16:14:48;;;;;;;;;21.00;15.50;;;;;;;;4973940;28;45519;-69
2024/02/08 16:20:05;;;;;;;;;14.00;12.00;;;;;;;;4972663;28;46091;-69
2024/02/08 16:22:37;;;;;;;;;12.50;10.25;;;;;;;;4970202;28;45258;-70
2024/02/08 16:25:02;;;;;;;;;12.50;11.25;;;;;;;;4953851;28;45868;-69
2024/02/08 16:27:28;;;;;;;;;15.25;12.00;;;;;;;;4968021;28;46252;-70
2024/02/08 16:30:07;;;;;;;;;18.00;12.00;;;;;;;;4974522;28;45398;-70
2024/02/08 16:32:55;;;;;;;;;14.50;12.75;;;;;;;;4969740;28;45408;-69
2024/02/08 16:35:37;;;;;;;;;18.25;13.00;;;;;;;;4973367;28;46202;-70
2024/02/08 16:38:07;;;;;;;;;12.25;12.25;;;;;;;;4971816;28;45601;-70
2024/02/08 16:40:52;;;;;;;;;13.50;12.50;;;;;;;;4965432;28;45453;-71
2024/02/08 16:43:27;;;;;;;;;15.75;12.75;;;;;;;;4972690;28;45339;-69
2024/02/08 16:46:05;;;;;;;;;13.00;10.75;;;;;;;;4974962;28;46443;-72
2024/02/08 16:48:33;;;;;;;;;15.00;14.50;;;;;;;;4971645;28;46102;-74
2024/02/08 16:51:09;;;;;;;;;20.75;18.50;;;;;;;;4965755;28;45904;-72
2024/02/08 16:53:37;;;;;;;;;17.75;15.00;;;;;;;;4978962;28;45676;-72
2024/02/08 16:56:03;;;;;;;;;15.00;12.00;;;;;;;;4978544;28;45653;-74
2024/02/08 16:58:37;;;;;;;;;20.50;13.25;;;;;;;;4978755;28;46241;-74
2024/02/08 17:01:05;;;;;;;;;16.00;13.00;;;;;;;;4973823;28;45516;-73
2024/02/08 17:03:37;;;;;;;;;14.50;10.25;;;;;;;;4970791;28;45669;-72
2024/02/08 17:06:16;;;;;;;;;19.75;12.00;;;;;;;;4977633;28;45346;-73